0FD3 weather

Dugger Field
Freeport, Florida, United States

Public forecast

Using degrees Fahrenheit for public forecast. Weather courtesy of forecast.io.

METAR (pilot weather report)

Closest report is Defuniak Springs Airport, 14.4 nm (26.7 km) NNW. Retrieved 2018/09/21 19:35 UTC (3 minutes ago):

K54J 211935Z AUTO 22008KT 10SM SCT040 BKN048 BKN060 27/23 A3005 RMK AO2 LTG DSNT S AND W T02700230

TAF (pilot weather forecast)

Closest forecast is Northwest Florida Beaches International Airport, 17.6 nm (32.5 km) ESE. Retrieved 2018/09/21 18:22 UTC (1 hour ago):

TAF KECP 211720Z 2118/2218 10007KT P6SM SCT040 TEMPO 2118/2120 4SM TSRA BKN040CB FM221500 15006KT P6SM FEW030